Time;durP1;ratioP1;P1;durP2;ratioP2;P2;SDS_P1;SDS_P2;PMS_P1;PMS_P2;Temp;Humidity;BMP_temperature;BMP_pressure;BME280_temperature;BME280_humidity;BME280_pressure;Samples;Min_cycle;Max_cycle;Signal;HPM_P1;HPM_P2
2023/09/14 00:00:43;;;;;;;5.80;5.40;;;;;;;18.27;100.00;100705.16;4966112;28;20634;-79
2023/09/14 00:03:08;;;;;;;6.33;5.83;;;;;;;18.23;100.00;100703.53;4975082;28;20211;-78
2023/09/14 00:05:41;;;;;;;6.20;5.80;;;;;;;18.23;100.00;100706.16;4965669;28;20252;-78
2023/09/14 00:08:07;;;;;;;5.93;5.43;;;;;;;18.20;100.00;100695.81;4968751;28;20182;-78
2023/09/14 00:10:32;;;;;;;6.50;6.00;;;;;;;18.24;100.00;100701.78;4968214;28;20226;-78
2023/09/14 00:12:58;;;;;;;6.40;5.90;;;;;;;18.25;100.00;100693.88;4966132;28;20210;-77
2023/09/14 00:15:24;;;;;;;6.00;5.40;;;;;;;18.24;100.00;100693.94;4977798;28;20835;-80
2023/09/14 00:17:49;;;;;;;5.60;5.20;;;;;;;18.21;100.00;100694.91;4974688;28;20679;-78
2023/09/14 00:20:24;;;;;;;5.83;5.43;;;;;;;18.24;100.00;100694.78;4971821;28;20269;-78
2023/09/14 00:22:50;;;;;;;6.73;6.17;;;;;;;18.29;100.00;100697.25;4971511;28;20218;-79
2023/09/14 00:25:17;;;;;;;6.10;5.63;;;;;;;18.23;100.00;100690.44;4964852;28;20209;-79
2023/09/14 00:27:42;;;;;;;6.07;5.57;;;;;;;18.24;100.00;100696.56;4964524;28;20205;-78
2023/09/14 00:30:08;;;;;;;6.00;5.60;;;;;;;18.21;100.00;100692.28;4967690;28;20194;-78
2023/09/14 00:32:38;;;;;;;5.97;5.40;;;;;;;18.21;100.00;100697.53;4964561;28;20274;-79
2023/09/14 00:35:05;;;;;;;6.10;5.60;;;;;;;18.25;100.00;100701.72;4965503;28;20227;-79
2023/09/14 00:37:31;;;;;;;6.17;5.77;;;;;;;18.24;100.00;100696.56;4968688;28;20233;-77
2023/09/14 00:39:56;;;;;;;6.10;5.67;;;;;;;18.25;100.00;100700.88;4968572;28;20328;-78
2023/09/14 00:42:22;;;;;;;6.00;5.40;;;;;;;18.23;100.00;100708.78;4964158;28;20233;-78
2023/09/14 00:44:47;;;;;;;6.33;5.73;;;;;;;18.26;100.00;100702.59;4967649;28;20245;-78
2023/09/14 00:47:12;;;;;;;5.73;5.33;;;;;;;18.22;100.00;100707.09;4958880;28;20623;-78
2023/09/14 00:49:38;;;;;;;5.67;5.27;;;;;;;18.19;100.00;100701.97;4962425;28;20194;-80
2023/09/14 00:52:06;;;;;;;6.67;6.17;;;;;;;18.19;100.00;100707.19;4960964;28;20183;-78
2023/09/14 00:54:31;;;;;;;6.27;5.77;;;;;;;18.20;100.00;100711.53;4960423;28;20223;-79
2023/09/14 00:56:57;;;;;;;5.30;4.90;;;;;;;18.20;100.00;100708.91;4964424;28;20218;-78
2023/09/14 00:59:22;;;;;;;5.60;5.20;;;;;;;18.24;100.00;100712.28;4959845;28;20193;-78
2023/09/14 01:01:48;;;;;;;6.10;5.70;;;;;;;18.28;100.00;100712.13;4958006;28;20192;-77
2023/09/14 01:04:14;;;;;;;5.97;5.57;;;;;;;18.31;100.00;100702.44;4963963;28;20299;-79
2023/09/14 01:06:40;;;;;;;5.70;5.30;;;;;;;18.30;100.00;100703.34;4966465;28;20326;-79
2023/09/14 01:09:05;;;;;;;5.37;4.97;;;;;;;18.27;100.00;100704.31;4963219;28;20205;-78
2023/09/14 01:11:30;;;;;;;4.73;4.43;;;;;;;18.24;100.00;100697.41;4961875;28;20196;-78
2023/09/14 01:14:09;;;;;;;5.87;5.37;;;;;;;18.24;100.00;100701.78;4954153;28;20303;-80
2023/09/14 01:16:46;;;;;;;6.10;5.50;;;;;;;18.19;100.00;100701.09;4963940;28;20214;-77
2023/09/14 01:19:30;;;;;;;5.77;5.37;;;;;;;18.15;100.00;100700.34;4958184;28;20235;-80
2023/09/14 01:22:37;;;;;;;5.77;5.27;;;;;;;18.09;100.00;100706.66;4969955;28;20190;-80
2023/09/14 01:25:14;;;;;;;5.27;4.83;;;;;;;18.07;100.00;100707.63;4959012;28;20194;-79
2023/09/14 01:27:39;;;;;;;6.00;5.50;;;;;;;18.05;100.00;100697.19;4983117;28;20189;-77
2023/09/14 01:30:06;;;;;;;5.33;4.93;;;;;;;18.05;100.00;100702.41;4967238;28;20191;-79
2023/09/14 01:32:31;;;;;;;5.57;5.17;;;;;;;18.03;100.00;100700.75;4980799;28;20304;-79
2023/09/14 01:34:57;;;;;;;5.17;4.77;;;;;;;18.03;100.00;100699.00;4981362;28;22153;-77
2023/09/14 01:37:23;;;;;;;5.43;4.63;;;;;;;17.99;100.00;100702.63;4970714;28;20660;-78
2023/09/14 01:39:49;;;;;;;5.07;4.67;;;;;;;18.03;100.00;100706.00;4969750;28;20656;-79
2023/09/14 01:42:15;;;;;;;4.90;4.50;;;;;;;18.05;100.00;100705.03;4972256;28;20203;-78
2023/09/14 01:44:42;;;;;;;5.67;4.73;;;;;;;18.02;100.00;100712.97;4973923;28;20217;-78
2023/09/14 01:47:07;;;;;;;5.17;4.67;;;;;;;17.96;100.00;100713.19;4968217;28;20193;-79
2023/09/14 01:49:32;;;;;;;5.00;4.50;;;;;;;17.95;100.00;100706.22;4975352;28;20665;-78
2023/09/14 01:51:58;;;;;;;4.73;4.40;;;;;;;17.97;100.00;100715.75;4969872;28;20192;-78
2023/09/14 01:54:23;;;;;;;5.10;4.63;;;;;;;17.96;100.00;100718.41;4972949;28;20238;-79
2023/09/14 01:56:49;;;;;;;4.83;4.43;;;;;;;17.91;100.00;100710.72;4965810;28;20746;-80
2023/09/14 01:59:14;;;;;;;4.87;4.47;;;;;;;17.91;100.00;100707.22;4971215;28;20198;-79
2023/09/14 02:01:39;;;;;;;4.60;4.30;;;;;;;17.89;100.00;100712.53;4976910;28;20611;-80
2023/09/14 02:04:05;;;;;;;4.33;4.03;;;;;;;17.88;100.00;100715.19;4983030;28;20204;-79
2023/09/14 02:06:30;;;;;;;5.43;3.93;;;;;;;17.83;100.00;100715.31;4975990;28;20185;-79
2023/09/14 02:08:56;;;;;;;4.83;4.40;;;;;;;17.83;100.00;100723.19;4974140;28;20198;-78
2023/09/14 02:11:21;;;;;;;4.67;4.27;;;;;;;17.81;100.00;100723.25;4968988;28;20236;-78
2023/09/14 02:13:46;;;;;;;4.33;4.00;;;;;;;17.86;100.00;100730.06;4982302;28;20260;-79
2023/09/14 02:16:11;;;;;;;4.13;3.77;;;;;;;17.85;100.00;100718.75;4981467;28;20596;-78
2023/09/14 02:18:37;;;;;;;4.23;3.90;;;;;;;17.81;100.00;100720.63;4969091;28;20198;-79
2023/09/14 02:21:03;;;;;;;5.43;4.40;;;;;;;17.82;100.00;100718.84;4972835;28;20705;-79
2023/09/14 02:23:28;;;;;;;4.30;3.90;;;;;;;17.83;100.00;100712.72;4973201;28;20215;-80
2023/09/14 02:25:54;;;;;;;4.10;3.80;;;;;;;17.80;100.00;100718.03;4964575;28;20206;-78
2023/09/14 02:28:20;;;;;;;4.33;3.90;;;;;;;17.78;100.00;100707.63;4968103;28;20727;-78
2023/09/14 02:30:46;;;;;;;4.37;3.97;;;;;;;17.74;100.00;100715.63;4992728;28;20185;-78
2023/09/14 02:33:11;;;;;;;4.13;3.83;;;;;;;17.73;100.00;100714.75;4976203;28;20235;-78
2023/09/14 02:35:40;;;;;;;4.23;3.73;;;;;;;17.78;100.00;100706.75;4976125;28;20220;-80
2023/09/14 02:38:06;;;;;;;4.20;3.80;;;;;;;17.78;100.00;100709.38;4973093;28;20194;-79
2023/09/14 02:40:33;;;;;;;3.60;3.30;;;;;;;17.69;100.00;100705.31;4961058;28;21017;-80
2023/09/14 02:42:58;;;;;;;3.70;3.40;;;;;;;17.66;100.00;100705.41;4962321;28;20218;-79
2023/09/14 02:45:23;;;;;;;4.53;3.67;;;;;;;17.66;100.00;100713.25;4967107;28;20186;-80
2023/09/14 02:47:49;;;;;;;4.03;3.13;;;;;;;17.61;100.00;100713.41;4976616;28;20186;-78
2023/09/14 02:50:14;;;;;;;4.47;3.10;;;;;;;17.68;100.00;100708.84;4962389;28;20211;-79
2023/09/14 02:52:39;;;;;;;3.13;2.83;;;;;;;17.65;100.00;100707.16;4966901;28;20192;-78
2023/09/14 02:55:05;;;;;;;2.63;2.43;;;;;;;17.63;100.00;100700.28;4970696;28;20210;-79
2023/09/14 02:57:30;;;;;;;3.23;2.80;;;;;;;17.56;100.00;100699.59;4975668;28;20677;-79
2023/09/14 02:59:56;;;;;;;2.93;2.50;;;;;;;17.56;100.00;100711.81;4971557;28;20253;-78
2023/09/14 03:02:22;;;;;;;3.60;3.00;;;;;;;17.48;100.00;100699.84;4977537;28;20201;-79
2023/09/14 03:04:47;;;;;;;3.10;2.80;;;;;;;17.49;100.00;100695.47;4964567;28;20191;-78
2023/09/14 03:07:13;;;;;;;4.37;2.77;;;;;;;17.47;100.00;100705.97;4964958;28;20189;-79
2023/09/14 03:09:38;;;;;;;2.53;2.33;;;;;;;17.37;100.00;100707.19;4971526;28;20194;-79
2023/09/14 03:12:04;;;;;;;3.10;2.80;;;;;;;17.39;100.00;100712.34;4969687;28;20230;-79
2023/09/14 03:14:29;;;;;;;2.83;2.63;;;;;;;17.30;100.00;100711.75;4970945;28;20214;-79
2023/09/14 03:16:55;;;;;;;2.77;2.57;;;;;;;17.28;100.00;100713.53;4971863;28;20251;-79
2023/09/14 03:19:20;;;;;;;3.00;2.50;;;;;;;17.23;100.00;100715.44;4972355;28;20841;-79
2023/09/14 03:21:45;;;;;;;2.97;2.77;;;;;;;17.19;100.00;100717.28;4967326;28;20219;-79
2023/09/14 03:24:11;;;;;;;3.30;3.00;;;;;;;17.20;100.00;100724.25;4980049;28;20213;-79
2023/09/14 03:26:37;;;;;;;3.43;3.07;;;;;;;17.16;100.00;100717.38;4970609;28;20215;-79
2023/09/14 03:29:02;;;;;;;2.70;2.47;;;;;;;17.13;100.00;100721.84;4968208;28;20239;-78
2023/09/14 03:31:28;;;;;;;3.20;3.00;;;;;;;17.13;100.00;100714.00;4965552;28;20202;-78
2023/09/14 03:33:54;;;;;;;3.63;2.97;;;;;;;17.11;100.00;100716.66;4964051;28;20252;-79
2023/09/14 03:36:19;;;;;;;3.67;2.90;;;;;;;17.04;100.00;100718.59;4965663;28;20237;-79
2023/09/14 03:38:45;;;;;;;3.57;3.10;;;;;;;16.99;100.00;100724.84;4965931;28;20216;-80
2023/09/14 03:41:12;;;;;;;5.10;3.30;;;;;;;16.92;100.00;100724.13;4977621;28;20630;-80
2023/09/14 03:43:37;;;;;;;3.50;3.20;;;;;;;16.86;100.00;100726.94;4959549;28;20297;-80
2023/09/14 03:46:03;;;;;;;5.13;3.17;;;;;;;16.80;100.00;100721.88;4968636;28;20290;-80
2023/09/14 03:48:28;;;;;;;3.40;3.00;;;;;;;16.74;100.00;100715.91;4964406;28;20762;-79
2023/09/14 03:50:57;;;;;;;3.57;3.27;;;;;;;16.69;100.00;100717.81;4961827;28;20193;-79
2023/09/14 03:53:22;;;;;;;3.33;2.77;;;;;;;16.58;100.00;100722.44;4971272;28;20247;-79
2023/09/14 03:55:47;;;;;;;3.33;3.03;;;;;;;16.52;100.00;100720.88;4965336;28;20303;-79
2023/09/14 03:58:12;;;;;;;3.50;3.20;;;;;;;16.49;100.00;100728.78;4963740;28;20189;-79
2023/09/14 04:00:38;;;;;;;3.17;2.83;;;;;;;16.40;100.00;100726.41;4962133;28;20201;-79
2023/09/14 04:03:04;;;;;;;4.40;3.70;;;;;;;16.39;100.00;100725.59;4959324;28;20232;-80
2023/09/14 04:05:29;;;;;;;4.47;3.17;;;;;;;16.30;100.00;100728.41;4972026;28;20204;-78
2023/09/14 04:07:54;;;;;;;3.13;2.93;;;;;;;16.28;100.00;100725.84;4959901;28;20225;-79
2023/09/14 04:10:20;;;;;;;5.27;3.63;;;;;;;16.26;100.00;100730.25;4967403;28;20607;-80
2023/09/14 04:12:45;;;;;;;3.87;3.43;;;;;;;16.21;100.00;100733.88;4968150;28;20252;-78
2023/09/14 04:15:11;;;;;;;7.40;3.80;;;;;;;16.17;100.00;100734.84;4967676;28;20216;-79
2023/09/14 04:17:37;;;;;;;4.30;3.90;;;;;;;16.09;100.00;100741.13;4969074;28;20276;-78
2023/09/14 04:20:09;;;;;;;3.47;3.17;;;;;;;16.03;100.00;100738.66;4968147;28;20285;-78
2023/09/14 04:22:35;;;;;;;3.50;3.20;;;;;;;15.98;100.00;100745.72;4968422;28;20260;-80
2023/09/14 04:25:00;;;;;;;3.93;3.17;;;;;;;15.91;100.00;100750.25;4964882;28;20192;-80
2023/09/14 04:27:26;;;;;;;3.23;2.87;;;;;;;15.89;100.00;100748.56;4973371;28;20192;-78
2023/09/14 04:29:51;;;;;;;3.27;2.93;;;;;;;15.85;100.00;100753.88;4968890;28;20252;-78
2023/09/14 04:32:16;;;;;;;3.20;2.90;;;;;;;15.82;100.00;100753.91;4969070;28;20275;-79
2023/09/14 04:34:41;;;;;;;4.03;2.90;;;;;;;15.78;100.00;100752.28;4970415;28;20219;-79
2023/09/14 04:37:07;;;;;;;3.60;2.93;;;;;;;15.74;100.00;100758.44;4968081;28;20314;-79
2023/09/14 04:39:34;;;;;;;3.67;2.87;;;;;;;15.65;100.00;100764.72;4968708;28;20660;-78
2023/09/14 04:42:00;;;;;;;2.90;2.70;;;;;;;15.66;100.00;100766.44;4969732;28;20188;-79
2023/09/14 04:44:25;;;;;;;3.63;2.90;;;;;;;15.65;100.00;100772.56;4969234;28;20391;-77
2023/09/14 04:46:51;;;;;;;3.23;2.90;;;;;;;15.63;100.00;100761.28;4967095;28;20295;-78
2023/09/14 04:49:16;;;;;;;3.13;2.83;;;;;;;15.59;100.00;100769.22;4970366;28;20267;-78
2023/09/14 04:51:41;;;;;;;5.47;3.03;;;;;;;15.66;100.00;100766.44;4964977;28;20205;-78
2023/09/14 04:54:07;;;;;;;4.17;3.13;;;;;;;15.62;100.00;100769.16;4965713;28;20225;-80
2023/09/14 04:56:32;;;;;;;5.73;3.43;;;;;;;15.60;100.00;100769.19;4964110;28;20749;-79
2023/09/14 04:58:57;;;;;;;4.20;3.23;;;;;;;15.49;100.00;100769.44;4963328;28;20184;-79
2023/09/14 05:01:22;;;;;;;10.73;4.40;;;;;;;15.47;100.00;100775.56;4963292;28;20204;-79
2023/09/14 05:03:48;;;;;;;5.77;3.17;;;;;;;15.44;100.00;100773.00;4963501;28;20226;-79
2023/09/14 05:06:13;;;;;;;5.47;3.50;;;;;;;15.39;100.00;100770.50;4964695;28;20364;-78
2023/09/14 05:08:39;;;;;;;4.27;3.50;;;;;;;15.39;100.00;100781.81;4967331;28;20588;-79
2023/09/14 05:11:04;;;;;;;5.03;3.90;;;;;;;15.48;100.00;100779.88;4966229;28;20185;-78
2023/09/14 05:13:30;;;;;;;4.40;3.50;;;;;;;15.41;100.00;100786.16;4962166;28;20704;-78
2023/09/14 05:15:55;;;;;;;4.20;3.07;;;;;;;15.36;100.00;100787.09;4963308;28;20234;-78
2023/09/14 05:18:21;;;;;;;4.00;3.30;;;;;;;15.36;100.00;100781.88;4964881;28;20194;-78
2023/09/14 05:20:49;;;;;;;4.80;3.57;;;;;;;15.37;100.00;100780.09;4967934;28;20213;-78
2023/09/14 05:23:15;;;;;;;3.30;2.83;;;;;;;15.31;100.00;100788.91;4959427;28;20247;-77
2023/09/14 05:25:40;;;;;;;4.93;3.53;;;;;;;15.38;100.00;100789.66;4962807;28;20218;-78
2023/09/14 05:28:08;;;;;;;3.60;2.77;;;;;;;15.39;100.00;100793.97;4968249;28;20221;-79
2023/09/14 05:30:33;;;;;;;4.67;3.23;;;;;;;15.45;100.00;100795.59;4970556;28;20234;-78
2023/09/14 05:32:58;;;;;;;4.07;2.97;;;;;;;15.49;100.00;100802.47;4974434;28;20210;-79
2023/09/14 05:35:24;;;;;;;3.37;2.87;;;;;;;15.55;100.00;100803.19;4967031;28;20224;-79
2023/09/14 05:37:50;;;;;;;3.13;2.83;;;;;;;15.60;100.00;100804.84;4978265;28;20564;-81
2023/09/14 05:40:16;;;;;;;3.50;3.20;;;;;;;15.60;100.00;100810.06;4968469;28;20190;-79
2023/09/14 05:42:41;;;;;;;4.83;2.87;;;;;;;15.54;100.00;100813.69;4969563;28;20203;-77
2023/09/14 05:45:11;;;;;;;3.70;3.10;;;;;;;15.52;100.00;100811.09;4966915;28;20200;-77
2023/09/14 05:47:37;;;;;;;4.70;3.33;;;;;;;15.53;100.00;100814.56;4968540;28;20194;-79
2023/09/14 05:50:03;;;;;;;3.33;2.83;;;;;;;15.66;100.00;100816.03;4975228;28;20245;-77
2023/09/14 05:52:30;;;;;;;3.83;3.40;;;;;;;15.63;100.00;100812.63;4974239;28;20230;-78
2023/09/14 05:54:55;;;;;;;3.77;3.30;;;;;;;15.70;100.00;100815.06;4977400;28;20278;-78
2023/09/14 05:57:20;;;;;;;5.77;3.40;;;;;;;15.71;100.00;100818.53;4977888;28;20273;-79
2023/09/14 05:59:46;;;;;;;4.27;3.20;;;;;;;15.79;100.00;100820.97;4984282;28;20686;-79
2023/09/14 06:02:11;;;;;;;5.03;3.93;;;;;;;15.89;100.00;100819.88;4980920;28;20654;-79
2023/09/14 06:04:38;;;;;;;4.50;3.20;;;;;;;15.95;100.00;100824.13;4971450;28;20333;-79
2023/09/14 06:07:03;;;;;;;8.47;3.80;;;;;;;15.97;100.00;100828.41;4978221;28;20280;-79
2023/09/14 06:09:32;;;;;;;4.40;3.30;;;;;;;15.91;100.00;100828.56;4964724;28;20229;-78
2023/09/14 06:11:57;;;;;;;5.57;3.20;;;;;;;15.89;100.00;100825.09;4980814;28;20270;-79
2023/09/14 06:14:23;;;;;;;5.27;4.47;;;;;;;15.87;100.00;100836.50;4982207;28;20237;-77
2023/09/14 06:16:48;;;;;;;15.77;12.00;;;;;;;15.91;100.00;100828.56;4974547;28;20292;-77
2023/09/14 06:19:14;;;;;;;5.87;3.83;;;;;;;15.97;100.00;100833.63;4963681;28;20211;-76
2023/09/14 06:21:40;;;;;;;5.17;3.57;;;;;;;15.96;100.00;100836.28;4972081;28;20888;-77
2023/09/14 06:24:06;;;;;;;6.63;3.43;;;;;;;16.08;100.00;100825.56;4975409;28;20202;-77
2023/09/14 06:26:31;;;;;;;8.27;3.70;;;;;;;16.00;100.00;100833.59;4967550;28;20189;-77
2023/09/14 06:28:57;;;;;;;5.37;3.57;;;;;;;15.95;100.00;100842.41;4964787;28;20205;-78
2023/09/14 06:31:22;;;;;;;8.60;3.83;;;;;;;15.68;100.00;100839.47;4975190;28;20237;-78
2023/09/14 06:33:51;;;;;;;5.90;3.33;;;;;;;15.82;100.00;100833.94;4975788;28;20336;-78
2023/09/14 06:36:18;;;;;;;4.07;2.97;;;;;;;15.76;100.00;100827.13;4966666;28;20215;-77
2023/09/14 06:38:45;;;;;;;7.03;3.00;;;;;;;15.92;100.00;100832.03;4971856;28;20193;-78
2023/09/14 06:41:10;;;;;;;5.80;3.27;;;;;;;15.82;100.00;100829.56;4967047;28;20182;-78
2023/09/14 06:43:38;;;;;;;3.77;2.93;;;;;;;15.88;100.00;100822.53;4967413;28;20271;-78
2023/09/14 06:46:03;;;;;;;4.87;3.57;;;;;;;16.05;100.00;100823.03;4965511;28;20199;-77
2023/09/14 06:48:29;;;;;;;8.60;5.07;;;;;;;15.98;100.00;100824.91;4969853;28;20192;-79
2023/09/14 06:50:54;;;;;;;7.10;3.40;;;;;;;15.90;100.00;100824.22;4967621;28;20186;-77
2023/09/14 06:53:19;;;;;;;4.13;3.40;;;;;;;15.87;100.00;100824.31;4971801;28;20334;-78
2023/09/14 06:55:44;;;;;;;5.43;3.93;;;;;;;16.04;100.00;100823.03;4971986;28;20221;-80
2023/09/14 06:58:10;;;;;;;3.90;3.40;;;;;;;15.99;100.00;100831.84;4970661;28;20661;-80
2023/09/14 07:00:35;;;;;;;5.67;4.17;;;;;;;16.27;100.00;100828.59;4968391;28;20217;-79
2023/09/14 07:03:02;;;;;;;4.77;3.00;;;;;;;16.41;100.00;100822.19;4973793;28;20237;-79
2023/09/14 07:05:29;;;;;;;3.60;3.00;;;;;;;16.51;100.00;100820.19;4968206;28;20186;-78
2023/09/14 07:07:55;;;;;;;4.27;3.83;;;;;;;16.52;100.00;100829.75;4972210;28;20217;-79
2023/09/14 07:10:20;;;;;;;5.00;3.00;;;;;;;16.74;100.00;100830.06;4985697;28;20242;-79
2023/09/14 07:12:45;;;;;;;4.10;3.10;;;;;;;16.97;100.00;100826.00;4971708;28;20221;-79
2023/09/14 07:15:11;;;;;;;4.37;3.97;;;;;;;16.53;100.00;100829.69;4979752;28;20205;-78
2023/09/14 07:17:36;;;;;;;4.53;2.80;;;;;;;16.94;100.00;100829.53;4971668;28;20198;-79
2023/09/14 07:20:04;;;;;;;5.57;3.87;;;;;;;16.90;100.00;100830.50;4974762;28;20194;-79
2023/09/14 07:22:29;;;;;;;5.60;3.63;;;;;;;17.17;100.00;100830.69;4979304;28;20218;-79
2023/09/14 07:24:54;;;;;;;3.30;2.93;;;;;;;17.32;99.68;100829.41;4975301;28;20186;-81
2023/09/14 07:27:21;;;;;;;4.33;2.90;;;;;;;17.47;98.40;100830.75;4966758;28;20186;-80
2023/09/14 07:29:47;;;;;;;6.20;3.57;;;;;;;17.24;98.17;100837.47;4972581;28;20656;-79
2023/09/14 07:32:12;;;;;;;4.07;2.90;;;;;;;17.12;100.00;100832.59;4972715;28;20207;-79
2023/09/14 07:34:37;;;;;;;4.20;3.20;;;;;;;17.15;99.17;100833.34;4974345;28;20204;-79
2023/09/14 07:37:03;;;;;;;4.93;4.03;;;;;;;17.18;99.73;100832.38;4973671;28;20207;-81
2023/09/14 07:39:28;;;;;;;3.93;3.13;;;;;;;17.35;98.26;100832.78;4978917;28;21001;-79
2023/09/14 07:41:56;;;;;;;3.97;3.43;;;;;;;17.11;99.46;100836.94;4972829;28;20184;-79
2023/09/14 07:44:22;;;;;;;7.53;4.23;;;;;;;17.08;100.00;100839.66;4970344;28;20220;-78
2023/09/14 07:46:47;;;;;;;5.63;3.77;;;;;;;17.03;100.00;100836.31;4977383;28;20704;-79
2023/09/14 07:49:13;;;;;;;6.23;3.30;;;;;;;17.27;100.00;100839.13;4967372;28;20327;-79
2023/09/14 07:51:38;;;;;;;5.27;3.70;;;;;;;17.46;100.00;100837.72;4972046;28;20183;-79
2023/09/14 07:54:04;;;;;;;6.33;3.17;;;;;;;17.74;97.68;100841.28;4969839;28;20731;-79
2023/09/14 07:56:29;;;;;;;3.83;2.67;;;;;;;17.82;99.29;100839.28;4970938;28;20252;-80
2023/09/14 07:58:55;;;;;;;4.20;2.97;;;;;;;17.85;98.77;100847.03;4972505;28;20599;-80
2023/09/14 08:01:20;;;;;;;3.87;2.80;;;;;;;17.71;99.86;100849.22;4969469;28;20268;-81
2023/09/14 08:03:46;;;;;;;3.50;2.60;;;;;;;17.95;98.45;100843.22;4966396;28;20229;-79
2023/09/14 08:06:11;;;;;;;4.37;2.97;;;;;;;17.81;98.88;100848.03;4966446;28;20193;-80
2023/09/14 08:08:37;;;;;;;3.33;2.97;;;;;;;17.89;99.10;100846.06;4959612;28;20191;-81
2023/09/14 08:11:02;;;;;;;3.43;2.93;;;;;;;18.04;99.81;100847.34;4964356;28;20190;-80
2023/09/14 08:13:28;;;;;;;3.00;2.20;;;;;;;18.17;97.62;100857.44;4965830;28;20233;-79
2023/09/14 08:15:53;;;;;;;3.97;2.60;;;;;;;18.19;98.06;100847.78;4984181;28;20245;-78
2023/09/14 08:18:19;;;;;;;4.43;2.80;;;;;;;18.19;98.36;100853.91;4981682;28;20271;-79
2023/09/14 08:20:46;;;;;;;2.53;2.10;;;;;;;18.22;99.02;100852.94;4986532;28;20578;-79
2023/09/14 08:23:13;;;;;;;3.70;2.20;;;;;;;18.34;98.81;100849.91;4978301;28;20204;-80
2023/09/14 08:25:46;;;;;;;3.03;2.43;;;;;;;18.33;98.73;100853.44;4983723;28;20229;-78
2023/09/14 08:28:18;;;;;;;3.67;2.40;;;;;;;18.33;98.55;100852.59;4976521;28;20219;-79
2023/09/14 08:30:44;;;;;;;4.93;2.60;;;;;;;18.23;98.41;100854.66;4980083;28;20199;-78
2023/09/14 08:33:13;;;;;;;8.67;2.43;;;;;;;18.06;99.06;100852.56;4966255;28;20212;-78
2023/09/14 08:35:39;;;;;;;3.30;2.33;;;;;;;18.19;99.06;100859.13;4982181;28;20214;-78
2023/09/14 08:38:06;;;;;;;2.77;2.50;;;;;;;18.21;98.81;100849.47;4973679;28;20206;-78
2023/09/14 08:40:32;;;;;;;4.57;2.70;;;;;;;18.23;100.00;100849.41;4976078;28;20237;-78
2023/09/14 08:42:59;;;;;;;5.93;2.70;;;;;;;18.45;98.19;100851.34;4980290;28;20214;-78
2023/09/14 08:45:32;;;;;;;4.73;2.60;;;;;;;18.43;97.84;100852.25;4980140;28;20259;-80
2023/09/14 08:48:01;;;;;;;5.03;2.37;;;;;;;18.47;98.61;100854.75;4973765;28;20200;-78
2023/09/14 08:50:29;;;;;;;3.97;2.53;;;;;;;18.56;98.45;100852.69;4980144;28;20200;-78
2023/09/14 08:52:55;;;;;;;3.67;2.40;;;;;;;18.67;98.23;100846.25;4983362;28;20723;-79
2023/09/14 08:55:34;;;;;;;3.80;2.80;;;;;;;18.73;97.34;100849.50;4979239;28;20267;-78
2023/09/14 08:58:00;;;;;;;3.00;2.30;;;;;;;18.43;98.52;100838.28;4979483;28;20210;-80
2023/09/14 09:00:28;;;;;;;3.10;2.70;;;;;;;18.55;98.97;100837.00;4973542;28;20251;-78
2023/09/14 09:02:54;;;;;;;3.83;2.90;;;;;;;18.62;96.94;100838.50;4982687;28;20234;-79
2023/09/14 09:05:21;;;;;;;3.80;2.60;;;;;;;18.72;98.19;100842.56;4970003;28;21333;-81
2023/09/14 09:07:48;;;;;;;3.60;2.60;;;;;;;18.86;98.12;100843.84;4980717;28;20602;-80
2023/09/14 09:10:23;;;;;;;4.13;2.57;;;;;;;18.91;97.45;100846.28;4974123;28;20208;-78
2023/09/14 09:12:54;;;;;;;3.13;2.50;;;;;;;19.10;96.60;100839.53;4983579;28;20937;-79
2023/09/14 09:15:22;;;;;;;2.83;2.20;;;;;;;19.17;95.74;100835.75;4982333;28;20240;-78
2023/09/14 09:17:52;;;;;;;3.30;2.30;;;;;;;19.23;95.52;100837.28;4982803;28;20217;-80
2023/09/14 09:20:24;;;;;;;3.07;2.73;;;;;;;19.17;95.92;100830.50;4978454;28;20195;-78
2023/09/14 09:22:51;;;;;;;3.53;2.77;;;;;;;19.18;95.52;100840.09;4969949;28;20219;-80
2023/09/14 09:25:21;;;;;;;3.10;2.80;;;;;;;19.27;94.82;100838.06;4978751;28;20211;-78
2023/09/14 09:27:46;;;;;;;3.00;2.67;;;;;;;19.24;95.85;100838.16;4986537;28;20246;-78
2023/09/14 09:30:13;;;;;;;4.33;3.40;;;;;;;19.14;96.73;100835.84;4988308;28;20198;-79
2023/09/14 09:32:39;;;;;;;2.87;2.63;;;;;;;19.35;96.31;100836.00;4981527;28;20190;-78
2023/09/14 09:35:19;;;;;;;4.73;2.97;;;;;;;19.50;95.30;100837.22;4991490;28;20197;-79
2023/09/14 09:37:45;;;;;;;6.10;3.37;;;;;;;19.62;93.71;100833.25;4971995;28;20213;-79
2023/09/14 09:40:15;;;;;;;6.83;3.20;;;;;;;19.41;95.79;100848.91;4980892;28;20195;-78
2023/09/14 09:42:41;;;;;;;3.33;2.87;;;;;;;19.58;94.90;100835.13;4990048;28;20186;-79
2023/09/14 09:45:07;;;;;;;4.27;2.97;;;;;;;19.55;92.85;100834.41;4979988;28;20364;-79
2023/09/14 09:47:33;;;;;;;4.20;2.80;;;;;;;19.68;94.83;100840.03;4967135;28;20206;-78
2023/09/14 09:49:59;;;;;;;5.17;2.80;;;;;;;19.99;94.72;100841.50;4978792;28;20917;-80
2023/09/14 09:52:26;;;;;;;3.70;2.87;;;;;;;19.86;93.88;100838.47;4977670;28;20259;-78
2023/09/14 09:54:51;;;;;;;4.00;3.30;;;;;;;19.94;94.16;100847.81;4979798;28;20308;-79
2023/09/14 09:57:19;;;;;;;3.70;2.93;;;;;;;20.21;92.29;100836.22;4991884;28;20277;-81
2023/09/14 09:59:47;;;;;;;5.47;3.10;;;;;;;20.49;91.35;100825.44;4974645;28;20199;-81
2023/09/14 10:02:12;;;;;;;5.97;3.20;;;;;;;20.57;91.07;100827.75;4969989;28;20229;-80
2023/09/14 10:04:38;;;;;;;3.77;3.03;;;;;;;20.62;90.62;100828.44;4983587;28;20744;-81
2023/09/14 10:07:06;;;;;;;6.17;3.30;;;;;;;20.48;90.94;100828.16;4979705;28;20191;-79
2023/09/14 10:09:35;;;;;;;3.10;2.70;;;;;;;20.42;93.00;100821.34;4983086;28;20200;-78
2023/09/14 10:12:03;;;;;;;4.73;3.40;;;;;;;20.47;92.36;100816.75;4983481;28;20200;-78
2023/09/14 10:14:31;;;;;;;4.73;3.40;;;;;;;20.50;91.68;100816.66;4981092;28;20296;-78
2023/09/14 10:16:59;;;;;;;5.50;3.37;;;;;;;20.23;93.90;100816.88;4964487;28;20298;-79
2023/09/14 10:19:25;;;;;;;3.60;3.00;;;;;;;20.27;92.95;100820.22;4990499;28;20185;-78
2023/09/14 10:21:52;;;;;;;4.07;3.20;;;;;;;20.37;92.25;100816.28;4975505;28;20196;-78
2023/09/14 10:24:19;;;;;;;3.33;2.97;;;;;;;20.53;93.37;100813.88;4983468;28;20213;-80
2023/09/14 10:26:46;;;;;;;3.83;2.93;;;;;;;20.61;91.88;100816.19;4978226;28;20190;-80
2023/09/14 10:29:12;;;;;;;3.50;3.20;;;;;;;20.59;92.05;100812.78;4981783;28;20204;-80
2023/09/14 10:31:42;;;;;;;4.37;3.10;;;;;;;20.63;90.83;100808.22;4980696;28;20213;-78
2023/09/14 10:34:10;;;;;;;3.30;3.00;;;;;;;20.84;90.88;100804.72;4969669;28;20320;-80
2023/09/14 10:36:38;;;;;;;3.00;2.57;;;;;;;20.88;91.76;100802.78;4981007;28;20255;-80
2023/09/14 10:39:06;;;;;;;3.90;3.07;;;;;;;20.72;89.98;100805.22;4981479;28;20201;-79
2023/09/14 10:41:31;;;;;;;4.60;2.90;;;;;;;20.74;90.25;100807.78;4981238;28;20198;-78
2023/09/14 10:43:57;;;;;;;3.20;2.87;;;;;;;21.03;90.17;100801.25;4965153;28;20209;-78
2023/09/14 10:46:26;;;;;;;5.13;3.50;;;;;;;20.67;89.45;100800.13;4965880;28;20186;-78
2023/09/14 10:48:55;;;;;;;4.47;3.20;;;;;;;20.92;90.53;100803.50;4964920;28;20190;-78
2023/09/14 10:51:22;;;;;;;4.43;2.90;;;;;;;21.15;88.88;100786.69;4963605;28;20198;-78
2023/09/14 10:53:48;;;;;;;3.70;3.20;;;;;;;21.21;87.90;100794.31;4964406;28;20217;-78
2023/09/14 10:56:20;;;;;;;3.90;3.00;;;;;;;21.20;87.99;100786.47;4959761;28;20217;-79
2023/09/14 10:58:49;;;;;;;5.90;3.53;;;;;;;21.10;88.27;100781.66;4953332;28;20191;-79
2023/09/14 11:01:23;;;;;;;4.27;3.07;;;;;;;21.13;89.06;100784.13;4953493;28;20203;-79
2023/09/14 11:04:24;;;;;;;3.73;3.07;;;;;;;21.25;88.01;100776.59;4961865;28;20245;-80
2023/09/14 11:06:51;;;;;;;3.07;2.77;;;;;;;21.47;87.68;100774.69;4957117;28;20247;-78
2023/09/14 11:09:18;;;;;;;3.33;3.03;;;;;;;21.46;87.90;100765.09;4965906;28;20745;-78
2023/09/14 11:11:46;;;;;;;5.10;3.23;;;;;;;21.12;87.19;100765.78;4971269;28;20194;-79
2023/09/14 11:14:13;;;;;;;4.97;2.60;;;;;;;21.32;87.93;100770.16;4976498;28;20206;-80
2023/09/14 11:16:52;;;;;;;5.43;2.80;;;;;;;21.23;88.01;100758.25;4968162;28;20214;-78